sensor_id;sensor_type;location;lat;lon;timestamp;P1;durP1;ratioP1;P2;durP2;ratioP2
14346;SDS011;7257;52.158;9.968;2022-12-29T00:00:20;2.03;;;1.92;;
14346;SDS011;7257;52.158;9.968;2022-12-29T00:00:41;1.70;;;1.50;;
14346;SDS011;7257;52.158;9.968;2022-12-29T00:01:02;1.70;;;1.37;;
14346;SDS011;7257;52.158;9.968;2022-12-29T00:01:24;2.00;;;1.60;;
14346;SDS011;7257;52.158;9.968;2022-12-29T00:01:45;2.40;;;2.20;;
14346;SDS011;7257;52.158;9.968;2022-12-29T00:02:05;2.88;;;2.67;;
14346;SDS011;7257;52.158;9.968;2022-12-29T00:02:26;3.35;;;3.05;;
14346;SDS011;7257;52.158;9.968;2022-12-29T00:02:48;3.08;;;2.85;;
14346;SDS011;7257;52.158;9.968;2022-12-29T00:03:09;2.75;;;2.50;;
14346;SDS011;7257;52.158;9.968;2022-12-29T00:03:30;2.72;;;2.20;;
14346;SDS011;7257;52.158;9.968;2022-12-29T00:03:51;2.90;;;2.15;;
14346;SDS011;7257;52.158;9.968;2022-12-29T00:04:12;2.88;;;2.45;;
14346;SDS011;7257;52.158;9.968;2022-12-29T00:04:35;2.78;;;2.53;;
14346;SDS011;7257;52.158;9.968;2022-12-29T00:04:56;2.67;;;2.45;;
14346;SDS011;7257;52.158;9.968;2022-12-29T00:05:17;3.10;;;2.90;;
14346;SDS011;7257;52.158;9.968;2022-12-29T00:05:38;3.28;;;2.97;;
14346;SDS011;7257;52.158;9.968;2022-12-29T00:05:59;3.20;;;2.90;;
14346;SDS011;7257;52.158;9.968;2022-12-29T00:06:22;2.42;;;2.22;;
14346;SDS011;7257;52.158;9.968;2022-12-29T00:06:43;2.05;;;1.85;;
14346;SDS011;7257;52.158;9.968;2022-12-29T00:07:05;1.88;;;1.67;;
14346;SDS011;7257;52.158;9.968;2022-12-29T00:07:26;2.05;;;1.80;;
14346;SDS011;7257;52.158;9.968;2022-12-29T00:07:50;2.25;;;2.05;;
14346;SDS011;7257;52.158;9.968;2022-12-29T00:08:11;2.53;;;2.33;;
14346;SDS011;7257;52.158;9.968;2022-12-29T00:08:31;2.72;;;2.53;;
14346;SDS011;7257;52.158;9.968;2022-12-29T00:09:01;2.40;;;2.20;;
14346;SDS011;7257;52.158;9.968;2022-12-29T00:09:23;2.40;;;2.20;;
14346;SDS011;7257;52.158;9.968;2022-12-29T00:09:45;2.58;;;2.38;;
14346;SDS011;7257;52.158;9.968;2022-12-29T00:10:06;2.38;;;2.15;;
14346;SDS011;7257;52.158;9.968;2022-12-29T00:10:29;2.42;;;1.95;;
14346;SDS011;7257;52.158;9.968;2022-12-29T00:10:49;2.60;;;2.40;;
14346;SDS011;7257;52.158;9.968;2022-12-29T00:11:11;3.08;;;2.78;;
14346;SDS011;7257;52.158;9.968;2022-12-29T00:11:33;2.40;;;2.20;;
14346;SDS011;7257;52.158;9.968;2022-12-29T00:11:55;2.05;;;1.85;;
14346;SDS011;7257;52.158;9.968;2022-12-29T00:12:16;2.13;;;1.92;;
14346;SDS011;7257;52.158;9.968;2022-12-29T00:12:37;2.20;;;1.98;;
14346;SDS011;7257;52.158;9.968;2022-12-29T00:13:17;2.03;;;1.50;;
14346;SDS011;7257;52.158;9.968;2022-12-29T00:13:56;1.70;;;1.40;;
14346;SDS011;7257;52.158;9.968;2022-12-29T00:14:36;1.80;;;1.50;;
14346;SDS011;7257;52.158;9.968;2022-12-29T00:15:15;1.80;;;1.50;;
14346;SDS011;7257;52.158;9.968;2022-12-29T00:15:55;2.00;;;1.50;;
14346;SDS011;7257;52.158;9.968;2022-12-29T00:16:17;2.30;;;2.10;;
14346;SDS011;7257;52.158;9.968;2022-12-29T00:16:38;2.60;;;2.40;;
14346;SDS011;7257;52.158;9.968;2022-12-29T00:17:01;2.47;;;2.28;;
14346;SDS011;7257;52.158;9.968;2022-12-29T00:17:23;2.10;;;1.90;;
14346;SDS011;7257;52.158;9.968;2022-12-29T00:17:44;1.88;;;1.52;;
14346;SDS011;7257;52.158;9.968;2022-12-29T00:18:05;2.08;;;1.45;;
14346;SDS011;7257;52.158;9.968;2022-12-29T00:18:27;2.00;;;1.50;;
14346;SDS011;7257;52.158;9.968;2022-12-29T00:18:47;2.20;;;1.60;;
14346;SDS011;7257;52.158;9.968;2022-12-29T00:19:11;2.60;;;1.80;;
14346;SDS011;7257;52.158;9.968;2022-12-29T00:19:47;3.03;;;1.63;;
14346;SDS011;7257;52.158;9.968;2022-12-29T00:20:26;2.40;;;1.50;;
14346;SDS011;7257;52.158;9.968;2022-12-29T00:21:05;1.63;;;1.48;;
14346;SDS011;7257;52.158;9.968;2022-12-29T00:21:46;2.50;;;1.70;;
14346;SDS011;7257;52.158;9.968;2022-12-29T00:22:25;2.53;;;1.77;;
14346;SDS011;7257;52.158;9.968;2022-12-29T00:23:04;1.85;;;1.67;;
14346;SDS011;7257;52.158;9.968;2022-12-29T00:23:43;1.65;;;1.42;;
14346;SDS011;7257;52.158;9.968;2022-12-29T00:24:23;2.80;;;1.40;;
14346;SDS011;7257;52.158;9.968;2022-12-29T00:25:02;3.45;;;1.50;;
14346;SDS011;7257;52.158;9.968;2022-12-29T00:25:43;4.03;;;1.70;;
14346;SDS011;7257;52.158;9.968;2022-12-29T00:26:22;3.50;;;1.65;;
14346;SDS011;7257;52.158;9.968;2022-12-29T00:26:58;2.40;;;1.50;;
14346;SDS011;7257;52.158;9.968;2022-12-29T00:27:48;1.35;;;1.25;;
14346;SDS011;7257;52.158;9.968;2022-12-29T00:28:29;1.55;;;1.20;;
14346;SDS011;7257;52.158;9.968;2022-12-29T00:29:08;1.80;;;1.52;;
14346;SDS011;7257;52.158;9.968;2022-12-29T00:29:47;2.10;;;1.90;;
14346;SDS011;7257;52.158;9.968;2022-12-29T00:30:27;2.47;;;2.00;;
14346;SDS011;7257;52.158;9.968;2022-12-29T00:31:07;2.55;;;1.60;;
14346;SDS011;7257;52.158;9.968;2022-12-29T00:31:50;1.95;;;1.38;;
14346;SDS011;7257;52.158;9.968;2022-12-29T00:32:29;2.03;;;1.50;;
14346;SDS011;7257;52.158;9.968;2022-12-29T00:33:09;2.10;;;1.90;;
14346;SDS011;7257;52.158;9.968;2022-12-29T00:33:49;1.58;;;1.48;;
14346;SDS011;7257;52.158;9.968;2022-12-29T00:34:28;1.77;;;1.30;;
14346;SDS011;7257;52.158;9.968;2022-12-29T00:35:08;1.52;;;1.42;;
14346;SDS011;7257;52.158;9.968;2022-12-29T00:35:33;2.17;;;2.08;;
14346;SDS011;7257;52.158;9.968;2022-12-29T00:36:00;2.70;;;2.50;;
14346;SDS011;7257;52.158;9.968;2022-12-29T00:36:24;2.30;;;2.10;;
14346;SDS011;7257;52.158;9.968;2022-12-29T00:36:48;1.92;;;1.73;;
14346;SDS011;7257;52.158;9.968;2022-12-29T00:37:10;2.22;;;2.03;;
14346;SDS011;7257;52.158;9.968;2022-12-29T00:37:31;2.55;;;2.35;;
14346;SDS011;7257;52.158;9.968;2022-12-29T00:38:07;2.40;;;2.20;;
14346;SDS011;7257;52.158;9.968;2022-12-29T00:38:51;3.60;;;1.98;;
14346;SDS011;7257;52.158;9.968;2022-12-29T00:39:33;3.80;;;1.83;;
14346;SDS011;7257;52.158;9.968;2022-12-29T00:40:12;3.20;;;1.50;;
14346;SDS011;7257;52.158;9.968;2022-12-29T00:40:52;2.00;;;1.70;;
14346;SDS011;7257;52.158;9.968;2022-12-29T00:41:31;2.00;;;1.80;;
14346;SDS011;7257;52.158;9.968;2022-12-29T00:42:10;2.20;;;1.67;;
14346;SDS011;7257;52.158;9.968;2022-12-29T00:42:49;2.50;;;2.20;;
14346;SDS011;7257;52.158;9.968;2022-12-29T00:43:30;2.20;;;2.00;;
14346;SDS011;7257;52.158;9.968;2022-12-29T00:44:09;1.73;;;1.52;;
14346;SDS011;7257;52.158;9.968;2022-12-29T00:44:33;1.90;;;1.48;;
14346;SDS011;7257;52.158;9.968;2022-12-29T00:44:54;2.05;;;1.83;;
14346;SDS011;7257;52.158;9.968;2022-12-29T00:45:15;3.13;;;2.38;;
14346;SDS011;7257;52.158;9.968;2022-12-29T00:45:36;3.13;;;2.40;;
14346;SDS011;7257;52.158;9.968;2022-12-29T00:45:59;2.67;;;1.70;;
14346;SDS011;7257;52.158;9.968;2022-12-29T00:46:21;2.60;;;1.42;;
14346;SDS011;7257;52.158;9.968;2022-12-29T00:46:42;3.05;;;1.90;;
14346;SDS011;7257;52.158;9.968;2022-12-29T00:47:03;2.50;;;2.30;;
14346;SDS011;7257;52.158;9.968;2022-12-29T00:47:25;2.60;;;2.40;;
14346;SDS011;7257;52.158;9.968;2022-12-29T00:47:46;2.47;;;2.25;;
14346;SDS011;7257;52.158;9.968;2022-12-29T00:48:07;2.30;;;2.08;;
14346;SDS011;7257;52.158;9.968;2022-12-29T00:48:27;2.17;;;1.98;;
14346;SDS011;7257;52.158;9.968;2022-12-29T00:49:10;2.97;;;2.17;;
14346;SDS011;7257;52.158;9.968;2022-12-29T00:49:50;1.75;;;1.50;;
14346;SDS011;7257;52.158;9.968;2022-12-29T00:50:11;1.70;;;1.60;;
14346;SDS011;7257;52.158;9.968;2022-12-29T00:50:32;1.98;;;1.88;;
14346;SDS011;7257;52.158;9.968;2022-12-29T00:50:55;1.90;;;1.70;;
14346;SDS011;7257;52.158;9.968;2022-12-29T00:51:16;2.03;;;1.73;;
14346;SDS011;7257;52.158;9.968;2022-12-29T00:51:37;2.20;;;1.60;;
14346;SDS011;7257;52.158;9.968;2022-12-29T00:51:59;1.90;;;1.70;;
14346;SDS011;7257;52.158;9.968;2022-12-29T00:52:21;2.47;;;1.80;;
14346;SDS011;7257;52.158;9.968;2022-12-29T00:52:43;2.70;;;2.10;;
14346;SDS011;7257;52.158;9.968;2022-12-29T00:53:04;2.75;;;2.03;;
14346;SDS011;7257;52.158;9.968;2022-12-29T00:53:25;2.00;;;1.77;;
14346;SDS011;7257;52.158;9.968;2022-12-29T00:53:45;1.75;;;1.30;;
14346;SDS011;7257;52.158;9.968;2022-12-29T00:54:06;1.90;;;1.50;;
14346;SDS011;7257;52.158;9.968;2022-12-29T00:54:28;1.90;;;1.60;;
14346;SDS011;7257;52.158;9.968;2022-12-29T00:54:51;2.03;;;1.83;;
14346;SDS011;7257;52.158;9.968;2022-12-29T00:55:12;2.30;;;2.10;;
14346;SDS011;7257;52.158;9.968;2022-12-29T00:55:36;2.65;;;2.45;;
14346;SDS011;7257;52.158;9.968;2022-12-29T00:55:57;2.25;;;2.05;;
14346;SDS011;7257;52.158;9.968;2022-12-29T00:56:18;2.72;;;1.95;;
14346;SDS011;7257;52.158;9.968;2022-12-29T00:56:40;2.65;;;2.08;;
14346;SDS011;7257;52.158;9.968;2022-12-29T00:57:01;2.38;;;1.75;;
14346;SDS011;7257;52.158;9.968;2022-12-29T00:57:23;2.10;;;1.67;;
14346;SDS011;7257;52.158;9.968;2022-12-29T00:57:45;2.60;;;2.20;;
14346;SDS011;7257;52.158;9.968;2022-12-29T00:58:06;2.42;;;2.22;;
14346;SDS011;7257;52.158;9.968;2022-12-29T00:58:27;2.33;;;2.05;;
14346;SDS011;7257;52.158;9.968;2022-12-29T00:58:49;2.10;;;1.70;;
14346;SDS011;7257;52.158;9.968;2022-12-29T00:59:10;2.00;;;1.80;;
14346;SDS011;7257;52.158;9.968;2022-12-29T00:59:34;2.20;;;2.00;;
14346;SDS011;7257;52.158;9.968;2022-12-29T00:59:55;2.45;;;2.25;;
14346;SDS011;7257;52.158;9.968;2022-12-29T01:00:16;2.28;;;2.08;;
14346;SDS011;7257;52.158;9.968;2022-12-29T01:00:37;2.25;;;2.05;;
14346;SDS011;7257;52.158;9.968;2022-12-29T01:01:01;2.17;;;1.98;;
14346;SDS011;7257;52.158;9.968;2022-12-29T01:01:24;2.28;;;2.00;;
14346;SDS011;7257;52.158;9.968;2022-12-29T01:01:45;2.13;;;1.92;;
14346;SDS011;7257;52.158;9.968;2022-12-29T01:02:06;2.08;;;1.85;;
14346;SDS011;7257;52.158;9.968;2022-12-29T01:02:28;1.90;;;1.60;;
14346;SDS011;7257;52.158;9.968;2022-12-29T01:02:50;1.80;;;1.40;;
14346;SDS011;7257;52.158;9.968;2022-12-29T01:03:11;2.03;;;1.93;;
14346;SDS011;7257;52.158;9.968;2022-12-29T01:03:31;2.77;;;2.57;;
14346;SDS011;7257;52.158;9.968;2022-12-29T01:03:53;2.60;;;2.40;;
14346;SDS011;7257;52.158;9.968;2022-12-29T01:04:14;2.65;;;2.45;;
14346;SDS011;7257;52.158;9.968;2022-12-29T01:04:36;2.63;;;2.42;;
14346;SDS011;7257;52.158;9.968;2022-12-29T01:04:57;2.22;;;2.03;;
14346;SDS011;7257;52.158;9.968;2022-12-29T01:05:18;2.33;;;1.58;;
14346;SDS011;7257;52.158;9.968;2022-12-29T01:05:39;1.80;;;1.20;;
14346;SDS011;7257;52.158;9.968;2022-12-29T01:05:59;1.90;;;1.20;;
14346;SDS011;7257;52.158;9.968;2022-12-29T01:06:22;1.50;;;1.40;;
14346;SDS011;7257;52.158;9.968;2022-12-29T01:06:43;2.00;;;1.85;;
14346;SDS011;7257;52.158;9.968;2022-12-29T01:07:04;2.97;;;2.17;;
14346;SDS011;7257;52.158;9.968;2022-12-29T01:07:25;3.20;;;2.77;;
14346;SDS011;7257;52.158;9.968;2022-12-29T01:07:47;2.85;;;2.65;;
14346;SDS011;7257;52.158;9.968;2022-12-29T01:08:08;2.37;;;2.20;;
14346;SDS011;7257;52.158;9.968;2022-12-29T01:08:29;2.72;;;1.65;;
14346;SDS011;7257;52.158;9.968;2022-12-29T01:08:50;3.30;;;1.42;;
14346;SDS011;7257;52.158;9.968;2022-12-29T01:09:27;2.30;;;1.40;;
14346;SDS011;7257;52.158;9.968;2022-12-29T01:10:06;1.38;;;1.13;;
14346;SDS011;7257;52.158;9.968;2022-12-29T01:10:30;1.90;;;1.70;;
14346;SDS011;7257;52.158;9.968;2022-12-29T01:10:58;2.40;;;2.20;;
14346;SDS011;7257;52.158;9.968;2022-12-29T01:11:19;2.30;;;2.10;;
14346;SDS011;7257;52.158;9.968;2022-12-29T01:11:40;2.10;;;1.90;;
14346;SDS011;7257;52.158;9.968;2022-12-29T01:12:01;2.20;;;2.00;;
14346;SDS011;7257;52.158;9.968;2022-12-29T01:12:22;2.15;;;2.05;;
14346;SDS011;7257;52.158;9.968;2022-12-29T01:12:58;2.05;;;1.85;;
14346;SDS011;7257;52.158;9.968;2022-12-29T01:13:20;1.90;;;1.65;;
14346;SDS011;7257;52.158;9.968;2022-12-29T01:13:41;1.80;;;1.50;;
14346;SDS011;7257;52.158;9.968;2022-12-29T01:14:05;1.45;;;1.33;;
14346;SDS011;7257;52.158;9.968;2022-12-29T01:14:26;1.45;;;1.20;;
14346;SDS011;7257;52.158;9.968;2022-12-29T01:14:47;2.40;;;1.30;;
14346;SDS011;7257;52.158;9.968;2022-12-29T01:15:10;3.00;;;1.42;;
14346;SDS011;7257;52.158;9.968;2022-12-29T01:15:32;1.92;;;1.45;;
14346;SDS011;7257;52.158;9.968;2022-12-29T01:15:53;1.73;;;1.33;;
14346;SDS011;7257;52.158;9.968;2022-12-29T01:16:14;1.30;;;1.20;;
14346;SDS011;7257;52.158;9.968;2022-12-29T01:16:35;1.80;;;1.40;;
14346;SDS011;7257;52.158;9.968;2022-12-29T01:16:56;1.80;;;1.23;;
14346;SDS011;7257;52.158;9.968;2022-12-29T01:17:18;2.80;;;1.60;;
14346;SDS011;7257;52.158;9.968;2022-12-29T01:17:39;2.30;;;1.90;;
14346;SDS011;7257;52.158;9.968;2022-12-29T01:18:00;3.15;;;2.33;;
14346;SDS011;7257;52.158;9.968;2022-12-29T01:18:21;3.55;;;2.60;;
14346;SDS011;7257;52.158;9.968;2022-12-29T01:18:43;3.80;;;2.45;;
14346;SDS011;7257;52.158;9.968;2022-12-29T01:19:05;2.13;;;1.85;;
14346;SDS011;7257;52.158;9.968;2022-12-29T01:19:26;1.92;;;1.58;;
14346;SDS011;7257;52.158;9.968;2022-12-29T01:19:47;3.90;;;1.70;;
14346;SDS011;7257;52.158;9.968;2022-12-29T01:20:09;4.30;;;1.90;;
14346;SDS011;7257;52.158;9.968;2022-12-29T01:20:30;3.40;;;1.75;;
14346;SDS011;7257;52.158;9.968;2022-12-29T01:20:57;2.08;;;1.67;;
14346;SDS011;7257;52.158;9.968;2022-12-29T01:21:20;2.28;;;1.55;;
14346;SDS011;7257;52.158;9.968;2022-12-29T01:21:41;2.40;;;1.55;;
14346;SDS011;7257;52.158;9.968;2022-12-29T01:22:02;2.03;;;1.50;;
14346;SDS011;7257;52.158;9.968;2022-12-29T01:22:24;2.03;;;1.60;;
14346;SDS011;7257;52.158;9.968;2022-12-29T01:22:44;2.10;;;1.90;;
14346;SDS011;7257;52.158;9.968;2022-12-29T01:23:05;2.80;;;2.60;;
14346;SDS011;7257;52.158;9.968;2022-12-29T01:23:26;2.95;;;2.75;;
14346;SDS011;7257;52.158;9.968;2022-12-29T01:23:47;3.05;;;2.85;;
14346;SDS011;7257;52.158;9.968;2022-12-29T01:24:09;2.92;;;2.72;;
14346;SDS011;7257;52.158;9.968;2022-12-29T01:24:30;2.75;;;2.40;;
14346;SDS011;7257;52.158;9.968;2022-12-29T01:24:51;2.75;;;1.92;;
14346;SDS011;7257;52.158;9.968;2022-12-29T01:25:12;2.53;;;1.45;;
14346;SDS011;7257;52.158;9.968;2022-12-29T01:25:34;1.80;;;1.38;;
14346;SDS011;7257;52.158;9.968;2022-12-29T01:25:54;1.40;;;1.20;;
14346;SDS011;7257;52.158;9.968;2022-12-29T01:26:16;1.40;;;1.20;;
14346;SDS011;7257;52.158;9.968;2022-12-29T01:26:38;2.10;;;1.70;;
14346;SDS011;7257;52.158;9.968;2022-12-29T01:26:59;2.30;;;2.10;;
14346;SDS011;7257;52.158;9.968;2022-12-29T01:27:20;2.58;;;2.38;;
14346;SDS011;7257;52.158;9.968;2022-12-29T01:27:41;2.40;;;2.20;;
14346;SDS011;7257;52.158;9.968;2022-12-29T01:28:02;2.22;;;2.03;;
14346;SDS011;7257;52.158;9.968;2022-12-29T01:28:23;2.30;;;1.98;;
14346;SDS011;7257;52.158;9.968;2022-12-29T01:28:44;2.17;;;1.98;;
14346;SDS011;7257;52.158;9.968;2022-12-29T01:29:08;1.95;;;1.85;;
14346;SDS011;7257;52.158;9.968;2022-12-29T01:29:29;1.63;;;1.52;;
14346;SDS011;7257;52.158;9.968;2022-12-29T01:29:50;1.42;;;1.33;;
14346;SDS011;7257;52.158;9.968;2022-12-29T01:30:12;1.50;;;1.40;;
14346;SDS011;7257;52.158;9.968;2022-12-29T01:30:33;1.40;;;1.25;;
14346;SDS011;7257;52.158;9.968;2022-12-29T01:30:55;2.20;;;1.23;;
14346;SDS011;7257;52.158;9.968;2022-12-29T01:31:16;2.20;;;1.30;;
14346;SDS011;7257;52.158;9.968;2022-12-29T01:31:37;2.75;;;1.80;;
14346;SDS011;7257;52.158;9.968;2022-12-29T01:31:59;2.28;;;2.08;;
14346;SDS011;7257;52.158;9.968;2022-12-29T01:32:19;2.50;;;2.30;;
14346;SDS011;7257;52.158;9.968;2022-12-29T01:32:40;2.50;;;2.33;;
14346;SDS011;7257;52.158;9.968;2022-12-29T01:33:01;2.77;;;2.57;;
14346;SDS011;7257;52.158;9.968;2022-12-29T01:33:23;2.80;;;2.60;;
14346;SDS011;7257;52.158;9.968;2022-12-29T01:33:45;2.40;;;2.20;;
14346;SDS011;7257;52.158;9.968;2022-12-29T01:34:06;2.25;;;1.88;;
14346;SDS011;7257;52.158;9.968;2022-12-29T01:34:27;2.15;;;1.52;;
14346;SDS011;7257;52.158;9.968;2022-12-29T01:34:47;1.90;;;1.33;;
14346;SDS011;7257;52.158;9.968;2022-12-29T01:35:09;1.60;;;1.42;;
14346;SDS011;7257;52.158;9.968;2022-12-29T01:35:30;1.70;;;1.60;;
14346;SDS011;7257;52.158;9.968;2022-12-29T01:35:52;2.35;;;2.17;;
14346;SDS011;7257;52.158;9.968;2022-12-29T01:36:14;2.63;;;2.42;;
14346;SDS011;7257;52.158;9.968;2022-12-29T01:36:36;2.05;;;1.85;;
14346;SDS011;7257;52.158;9.968;2022-12-29T01:36:58;1.67;;;1.40;;
14346;SDS011;7257;52.158;9.968;2022-12-29T01:37:18;1.90;;;1.70;;
14346;SDS011;7257;52.158;9.968;2022-12-29T01:37:39;2.40;;;2.20;;
14346;SDS011;7257;52.158;9.968;2022-12-29T01:38:00;2.90;;;2.70;;
14346;SDS011;7257;52.158;9.968;2022-12-29T01:38:22;2.80;;;2.60;;
14346;SDS011;7257;52.158;9.968;2022-12-29T01:38:43;2.65;;;2.45;;
14346;SDS011;7257;52.158;9.968;2022-12-29T01:39:05;2.55;;;1.85;;
14346;SDS011;7257;52.158;9.968;2022-12-29T01:39:26;2.20;;;1.45;;
14346;SDS011;7257;52.158;9.968;2022-12-29T01:39:46;2.35;;;1.30;;
14346;SDS011;7257;52.158;9.968;2022-12-29T01:40:09;1.80;;;1.20;;
14346;SDS011;7257;52.158;9.968;2022-12-29T01:40:30;1.92;;;1.60;;
14346;SDS011;7257;52.158;9.968;2022-12-29T01:40:51;2.33;;;2.13;;
14346;SDS011;7257;52.158;9.968;2022-12-29T01:41:13;3.13;;;2.93;;
14346;SDS011;7257;52.158;9.968;2022-12-29T01:41:36;2.55;;;2.35;;
14346;SDS011;7257;52.158;9.968;2022-12-29T01:41:56;2.20;;;2.00;;
14346;SDS011;7257;52.158;9.968;2022-12-29T01:42:18;2.00;;;1.80;;
14346;SDS011;7257;52.158;9.968;2022-12-29T01:42:42;2.25;;;1.73;;
14346;SDS011;7257;52.158;9.968;2022-12-29T01:43:04;3.10;;;2.13;;
14346;SDS011;7257;52.158;9.968;2022-12-29T01:43:38;4.20;;;2.10;;
14346;SDS011;7257;52.158;9.968;2022-12-29T01:44:00;2.50;;;1.45;;
14346;SDS011;7257;52.158;9.968;2022-12-29T01:45:10;1.85;;;1.10;;
14346;SDS011;7257;52.158;9.968;2022-12-29T01:45:32;1.55;;;1.30;;
14346;SDS011;7257;52.158;9.968;2022-12-29T01:45:54;2.00;;;1.80;;
14346;SDS011;7257;52.158;9.968;2022-12-29T01:46:18;2.33;;;2.13;;
14346;SDS011;7257;52.158;9.968;2022-12-29T01:46:44;2.50;;;1.80;;
14346;SDS011;7257;52.158;9.968;2022-12-29T01:47:08;2.20;;;1.50;;
14346;SDS011;7257;52.158;9.968;2022-12-29T01:47:31;2.17;;;1.80;;
14346;SDS011;7257;52.158;9.968;2022-12-29T01:47:58;2.28;;;2.00;;
14346;SDS011;7257;52.158;9.968;2022-12-29T01:48:21;2.00;;;1.80;;
14346;SDS011;7257;52.158;9.968;2022-12-29T01:48:42;1.67;;;1.42;;
14346;SDS011;7257;52.158;9.968;2022-12-29T01:49:08;1.70;;;1.40;;
14346;SDS011;7257;52.158;9.968;2022-12-29T01:49:33;1.70;;;1.55;;
14346;SDS011;7257;52.158;9.968;2022-12-29T01:49:55;2.90;;;1.70;;
14346;SDS011;7257;52.158;9.968;2022-12-29T01:50:22;2.55;;;1.55;;
14346;SDS011;7257;52.158;9.968;2022-12-29T01:50:49;1.50;;;1.40;;
14346;SDS011;7257;52.158;9.968;2022-12-29T01:51:13;1.30;;;1.20;;
14346;SDS011;7257;52.158;9.968;2022-12-29T01:51:35;1.30;;;1.20;;
14346;SDS011;7257;52.158;9.968;2022-12-29T01:51:59;1.67;;;1.50;;
14346;SDS011;7257;52.158;9.968;2022-12-29T01:52:24;2.30;;;1.67;;
14346;SDS011;7257;52.158;9.968;2022-12-29T01:52:51;2.20;;;1.90;;
14346;SDS011;7257;52.158;9.968;2022-12-29T01:53:17;2.20;;;2.10;;
14346;SDS011;7257;52.158;9.968;2022-12-29T01:53:41;2.00;;;1.90;;
14346;SDS011;7257;52.158;9.968;2022-12-29T01:54:03;1.83;;;1.73;;
14346;SDS011;7257;52.158;9.968;2022-12-29T01:54:33;1.60;;;1.50;;
14346;SDS011;7257;52.158;9.968;2022-12-29T01:54:57;1.60;;;1.50;;
14346;SDS011;7257;52.158;9.968;2022-12-29T01:55:20;1.67;;;1.50;;
14346;SDS011;7257;52.158;9.968;2022-12-29T01:55:42;1.80;;;1.52;;
14346;SDS011;7257;52.158;9.968;2022-12-29T01:56:07;2.30;;;1.70;;
14346;SDS011;7257;52.158;9.968;2022-12-29T01:56:34;2.10;;;1.90;;
14346;SDS011;7257;52.158;9.968;2022-12-29T01:56:56;1.77;;;1.67;;
14346;SDS011;7257;52.158;9.968;2022-12-29T01:57:20;2.08;;;1.98;;
14346;SDS011;7257;52.158;9.968;2022-12-29T01:57:45;2.20;;;2.00;;
14346;SDS011;7257;52.158;9.968;2022-12-29T01:58:09;1.80;;;1.42;;
14346;SDS011;7257;52.158;9.968;2022-12-29T01:58:34;2.00;;;1.40;;
14346;SDS011;7257;52.158;9.968;2022-12-29T01:59:00;2.40;;;1.30;;
14346;SDS011;7257;52.158;9.968;2022-12-29T01:59:26;5.45;;;1.70;;
14346;SDS011;7257;52.158;9.968;2022-12-29T01:59:53;5.28;;;1.55;;
14346;SDS011;7257;52.158;9.968;2022-12-29T02:00:17;3.17;;;1.15;;
14346;SDS011;7257;52.158;9.968;2022-12-29T02:00:39;1.10;;;1.00;;
14346;SDS011;7257;52.158;9.968;2022-12-29T02:01:01;1.42;;;1.33;;
14346;SDS011;7257;52.158;9.968;2022-12-29T02:01:22;2.40;;;1.70;;
14346;SDS011;7257;52.158;9.968;2022-12-29T02:01:43;2.60;;;2.17;;
14346;SDS011;7257;52.158;9.968;2022-12-29T02:02:04;2.45;;;2.13;;
14346;SDS011;7257;52.158;9.968;2022-12-29T02:02:28;2.13;;;2.00;;
14346;SDS011;7257;52.158;9.968;2022-12-29T02:02:50;2.00;;;1.90;;
14346;SDS011;7257;52.158;9.968;2022-12-29T02:03:13;2.17;;;1.63;;
14346;SDS011;7257;52.158;9.968;2022-12-29T02:03:35;2.33;;;1.63;;
14346;SDS011;7257;52.158;9.968;2022-12-29T02:03:57;2.75;;;1.60;;
14346;SDS011;7257;52.158;9.968;2022-12-29T02:04:19;2.05;;;1.63;;
14346;SDS011;7257;52.158;9.968;2022-12-29T02:04:40;2.15;;;1.95;;
14346;SDS011;7257;52.158;9.968;2022-12-29T02:05:05;2.72;;;2.03;;
14346;SDS011;7257;52.158;9.968;2022-12-29T02:05:31;2.38;;;2.10;;
14346;SDS011;7257;52.158;9.968;2022-12-29T02:05:57;1.73;;;1.63;;
14346;SDS011;7257;52.158;9.968;2022-12-29T02:06:22;1.38;;;1.00;;
14346;SDS011;7257;52.158;9.968;2022-12-29T02:06:49;1.75;;;1.40;;
14346;SDS011;7257;52.158;9.968;2022-12-29T02:07:14;2.40;;;1.50;;
14346;SDS011;7257;52.158;9.968;2022-12-29T02:07:39;2.20;;;1.38;;
14346;SDS011;7257;52.158;9.968;2022-12-29T02:08:02;1.63;;;1.50;;
14346;SDS011;7257;52.158;9.968;2022-12-29T02:08:23;1.52;;;1.38;;
14346;SDS011;7257;52.158;9.968;2022-12-29T02:08:47;1.40;;;1.30;;
14346;SDS011;7257;52.158;9.968;2022-12-29T02:09:10;1.80;;;1.60;;
14346;SDS011;7257;52.158;9.968;2022-12-29T02:09:31;1.90;;;1.50;;
14346;SDS011;7257;52.158;9.968;2022-12-29T02:09:52;2.33;;;1.52;;
14346;SDS011;7257;52.158;9.968;2022-12-29T02:10:14;3.10;;;1.70;;
14346;SDS011;7257;52.158;9.968;2022-12-29T02:10:35;3.47;;;2.10;;
14346;SDS011;7257;52.158;9.968;2022-12-29T02:10:59;3.10;;;1.98;;
14346;SDS011;7257;52.158;9.968;2022-12-29T02:11:20;2.15;;;1.88;;
14346;SDS011;7257;52.158;9.968;2022-12-29T02:11:43;1.63;;;1.52;;
14346;SDS011;7257;52.158;9.968;2022-12-29T02:12:04;1.35;;;1.25;;
14346;SDS011;7257;52.158;9.968;2022-12-29T02:12:25;1.15;;;1.05;;
14346;SDS011;7257;52.158;9.968;2022-12-29T02:12:47;1.50;;;1.40;;
14346;SDS011;7257;52.158;9.968;2022-12-29T02:13:08;1.90;;;1.80;;
14346;SDS011;7257;52.158;9.968;2022-12-29T02:13:29;2.20;;;2.10;;
14346;SDS011;7257;52.158;9.968;2022-12-29T02:13:50;2.38;;;2.17;;
14346;SDS011;7257;52.158;9.968;2022-12-29T02:14:12;2.20;;;2.03;;
14346;SDS011;7257;52.158;9.968;2022-12-29T02:14:34;1.77;;;1.65;;
14346;SDS011;7257;52.158;9.968;2022-12-29T02:14:57;1.60;;;1.38;;
14346;SDS011;7257;52.158;9.968;2022-12-29T02:15:21;1.70;;;1.25;;
14346;SDS011;7257;52.158;9.968;2022-12-29T02:15:53;2.00;;;1.70;;
14346;SDS011;7257;52.158;9.968;2022-12-29T02:16:35;2.08;;;1.70;;
14346;SDS011;7257;52.158;9.968;2022-12-29T02:17:11;1.55;;;1.00;;
14346;SDS011;7257;52.158;9.968;2022-12-29T02:17:53;1.60;;;1.10;;
14346;SDS011;7257;52.158;9.968;2022-12-29T02:18:26;1.80;;;1.38;;
14346;SDS011;7257;52.158;9.968;2022-12-29T02:18:56;2.00;;;1.70;;
14346;SDS011;7257;52.158;9.968;2022-12-29T02:19:51;2.40;;;1.63;;
14346;SDS011;7257;52.158;9.968;2022-12-29T02:20:37;1.58;;;1.20;;
14346;SDS011;7257;52.158;9.968;2022-12-29T02:21:39;1.25;;;1.13;;
14346;SDS011;7257;52.158;9.968;2022-12-29T02:22:17;1.58;;;1.20;;
14346;SDS011;7257;52.158;9.968;2022-12-29T02:22:46;2.55;;;1.70;;
14346;SDS011;7257;52.158;9.968;2022-12-29T02:23:26;2.53;;;1.85;;
14346;SDS011;7257;52.158;9.968;2022-12-29T02:25:15;3.78;;;1.20;;
14346;SDS011;7257;52.158;9.968;2022-12-29T02:25:59;1.70;;;1.60;;
14346;SDS011;7257;52.158;9.968;2022-12-29T02:26:49;2.25;;;1.40;;
14346;SDS011;7257;52.158;9.968;2022-12-29T02:29:35;1.70;;;1.40;;
14346;SDS011;7257;52.158;9.968;2022-12-29T02:30:09;2.10;;;1.70;;
14346;SDS011;7257;52.158;9.968;2022-12-29T02:30:42;2.25;;;2.05;;
14346;SDS011;7257;52.158;9.968;2022-12-29T02:31:12;2.55;;;2.35;;
14346;SDS011;7257;52.158;9.968;2022-12-29T02:31:37;2.10;;;2.00;;
14346;SDS011;7257;52.158;9.968;2022-12-29T02:32:06;1.70;;;1.60;;
14346;SDS011;7257;52.158;9.968;2022-12-29T02:32:40;1.50;;;1.40;;
14346;SDS011;7257;52.158;9.968;2022-12-29T02:33:10;1.55;;;1.25;;
14346;SDS011;7257;52.158;9.968;2022-12-29T02:33:42;1.85;;;1.50;;
14346;SDS011;7257;52.158;9.968;2022-12-29T02:34:15;2.22;;;1.33;;
14346;SDS011;7257;52.158;9.968;2022-12-29T02:34:48;2.30;;;2.10;;
14346;SDS011;7257;52.158;9.968;2022-12-29T02:35:20;2.55;;;2.35;;
14346;SDS011;7257;52.158;9.968;2022-12-29T02:35:53;2.22;;;1.50;;
14346;SDS011;7257;52.158;9.968;2022-12-29T02:36:23;2.22;;;1.70;;
14346;SDS011;7257;52.158;9.968;2022-12-29T02:36:51;2.20;;;1.90;;
14346;SDS011;7257;52.158;9.968;2022-12-29T02:37:20;2.60;;;2.40;;
14346;SDS011;7257;52.158;9.968;2022-12-29T02:37:49;2.35;;;2.15;;
14346;SDS011;7257;52.158;9.968;2022-12-29T02:38:20;2.30;;;2.00;;
14346;SDS011;7257;52.158;9.968;2022-12-29T02:38:58;2.50;;;2.30;;
14346;SDS011;7257;52.158;9.968;2022-12-29T02:39:26;1.83;;;1.70;;
14346;SDS011;7257;52.158;9.968;2022-12-29T02:40:01;1.45;;;1.35;;
14346;SDS011;7257;52.158;9.968;2022-12-29T02:40:29;1.48;;;1.38;;
14346;SDS011;7257;52.158;9.968;2022-12-29T02:41:03;2.60;;;2.40;;